sensor_id;sensor_type;location;lat;lon;timestamp;pressure;altitude;pressure_sealevel;temperature;humidity
11329;BME280;5719;42.714;23.732;2022-12-29T00:00:14;95358.50;;;5.10;91.49
11329;BME280;5719;42.714;23.732;2022-12-29T00:02:41;95361.19;;;5.07;91.56
11329;BME280;5719;42.714;23.732;2022-12-29T00:05:09;95360.47;;;5.04;91.44
11329;BME280;5719;42.714;23.732;2022-12-29T00:07:36;95365.56;;;5.04;90.82
11329;BME280;5719;42.714;23.732;2022-12-29T00:10:04;95365.81;;;4.98;90.47
11329;BME280;5719;42.714;23.732;2022-12-29T00:12:31;95360.91;;;4.91;90.51
11329;BME280;5719;42.714;23.732;2022-12-29T00:15:12;95361.34;;;4.79;91.10
11329;BME280;5719;42.714;23.732;2022-12-29T00:17:56;95371.13;;;4.68;92.82
11329;BME280;5719;42.714;23.732;2022-12-29T00:20:24;95368.78;;;4.62;92.71
11329;BME280;5719;42.714;23.732;2022-12-29T00:23:09;95364.66;;;4.58;91.90
11329;BME280;5719;42.714;23.732;2022-12-29T00:25:53;95372.47;;;4.55;92.78
11329;BME280;5719;42.714;23.732;2022-12-29T00:28:37;95373.25;;;4.56;93.55
11329;BME280;5719;42.714;23.732;2022-12-29T00:31:21;95368.16;;;4.56;94.67
11329;BME280;5719;42.714;23.732;2022-12-29T00:34:09;95375.56;;;4.38;95.89
11329;BME280;5719;42.714;23.732;2022-12-29T00:36:56;95368.88;;;4.34;94.58
11329;BME280;5719;42.714;23.732;2022-12-29T00:39:23;95377.47;;;4.33;94.13
11329;BME280;5719;42.714;23.732;2022-12-29T00:42:09;95361.41;;;4.28;93.76
11329;BME280;5719;42.714;23.732;2022-12-29T00:44:53;95380.84;;;4.34;94.00
11329;BME280;5719;42.714;23.732;2022-12-29T00:47:19;95389.44;;;4.33;93.42
11329;BME280;5719;42.714;23.732;2022-12-29T00:49:47;95377.72;;;4.26;93.36
11329;BME280;5719;42.714;23.732;2022-12-29T00:52:14;95379.66;;;3.93;95.03
11329;BME280;5719;42.714;23.732;2022-12-29T00:54:41;95384.53;;;3.73;97.36
11329;BME280;5719;42.714;23.732;2022-12-29T00:57:10;95383.97;;;3.91;96.09
11329;BME280;5719;42.714;23.732;2022-12-29T00:59:39;95382.94;;;3.97;94.96
11329;BME280;5719;42.714;23.732;2022-12-29T01:02:07;95381.16;;;3.99;93.42
11329;BME280;5719;42.714;23.732;2022-12-29T01:04:34;95371.91;;;3.94;93.26
11329;BME280;5719;42.714;23.732;2022-12-29T01:07:01;95372.78;;;3.93;93.85
11329;BME280;5719;42.714;23.732;2022-12-29T01:09:31;95370.19;;;3.95;93.20
11329;BME280;5719;42.714;23.732;2022-12-29T01:12:15;95379.72;;;3.90;93.18
11329;BME280;5719;42.714;23.732;2022-12-29T01:14:42;95366.19;;;3.86;93.55
11329;BME280;5719;42.714;23.732;2022-12-29T01:17:08;95373.88;;;3.86;93.28
11329;BME280;5719;42.714;23.732;2022-12-29T01:19:35;95367.19;;;3.82;92.51
11329;BME280;5719;42.714;23.732;2022-12-29T01:22:02;95367.25;;;3.81;92.80
11329;BME280;5719;42.714;23.732;2022-12-29T01:24:30;95364.72;;;3.79;92.77
11329;BME280;5719;42.714;23.732;2022-12-29T01:26:57;95360.50;;;3.78;92.47
11329;BME280;5719;42.714;23.732;2022-12-29T01:29:24;95368.31;;;3.74;93.03
11329;BME280;5719;42.714;23.732;2022-12-29T01:31:51;95360.66;;;3.74;93.01
11329;BME280;5719;42.714;23.732;2022-12-29T01:34:18;95358.22;;;3.69;93.21
11329;BME280;5719;42.714;23.732;2022-12-29T01:36:45;95360.47;;;3.52;93.67
11329;BME280;5719;42.714;23.732;2022-12-29T01:39:12;95357.13;;;3.22;94.93
11329;BME280;5719;42.714;23.732;2022-12-29T01:41:41;95343.59;;;3.19;94.72
11329;BME280;5719;42.714;23.732;2022-12-29T01:47:23;95344.78;;;3.07;95.79
11329;BME280;5719;42.714;23.732;2022-12-29T01:49:54;95337.41;;;2.98;97.06
11329;BME280;5719;42.714;23.732;2022-12-29T01:52:22;95340.63;;;3.05;97.48
11329;BME280;5719;42.714;23.732;2022-12-29T01:54:52;95336.47;;;3.01;97.92
11329;BME280;5719;42.714;23.732;2022-12-29T01:57:27;95336.28;;;3.07;98.54
11329;BME280;5719;42.714;23.732;2022-12-29T01:59:57;95331.88;;;3.12;97.64
11329;BME280;5719;42.714;23.732;2022-12-29T02:02:25;95336.03;;;3.16;97.45
11329;BME280;5719;42.714;23.732;2022-12-29T02:04:52;95333.38;;;3.19;96.92
11329;BME280;5719;42.714;23.732;2022-12-29T02:07:22;95334.13;;;3.22;96.61
11329;BME280;5719;42.714;23.732;2022-12-29T02:09:51;95328.16;;;3.22;96.44
11329;BME280;5719;42.714;23.732;2022-12-29T02:12:20;95323.03;;;3.23;95.73
11329;BME280;5719;42.714;23.732;2022-12-29T02:14:51;95328.13;;;3.23;95.41
11329;BME280;5719;42.714;23.732;2022-12-29T02:17:31;95326.47;;;3.22;95.40
11329;BME280;5719;42.714;23.732;2022-12-29T02:20:23;95323.19;;;3.17;93.87
11329;BME280;5719;42.714;23.732;2022-12-29T02:23:04;95322.44;;;3.14;93.95
11329;BME280;5719;42.714;23.732;2022-12-29T02:25:48;95319.13;;;3.12;94.75
11329;BME280;5719;42.714;23.732;2022-12-29T02:28:34;95321.63;;;3.13;94.28
11329;BME280;5719;42.714;23.732;2022-12-29T02:31:15;95320.97;;;3.07;93.05
11329;BME280;5719;42.714;23.732;2022-12-29T02:33:54;95317.94;;;2.94;93.86
11329;BME280;5719;42.714;23.732;2022-12-29T02:36:30;95320.06;;;2.80;95.46
11329;BME280;5719;42.714;23.732;2022-12-29T02:39:05;95323.38;;;2.83;95.30
11329;BME280;5719;42.714;23.732;2022-12-29T02:41:38;95327.53;;;2.86;95.13
11329;BME280;5719;42.714;23.732;2022-12-29T02:44:14;95319.84;;;2.87;95.32
11329;BME280;5719;42.714;23.732;2022-12-29T02:46:48;95328.41;;;2.85;95.83
11329;BME280;5719;42.714;23.732;2022-12-29T02:49:22;95331.25;;;2.76;96.37
11329;BME280;5719;42.714;23.732;2022-12-29T02:51:58;95338.78;;;2.80;96.01
11329;BME280;5719;42.714;23.732;2022-12-29T02:54:27;95329.34;;;2.82;95.79
11329;BME280;5719;42.714;23.732;2022-12-29T02:57:14;95321.72;;;2.81;97.27
11329;BME280;5719;42.714;23.732;2022-12-29T02:59:42;95322.47;;;2.84;98.20
11329;BME280;5719;42.714;23.732;2022-12-29T03:02:31;95325.00;;;2.84;98.83
11329;BME280;5719;42.714;23.732;2022-12-29T03:05:10;95321.50;;;2.88;99.93
11329;BME280;5719;42.714;23.732;2022-12-29T03:07:48;95322.19;;;2.95;100.00
11329;BME280;5719;42.714;23.732;2022-12-29T03:10:30;95318.59;;;3.01;100.00
11329;BME280;5719;42.714;23.732;2022-12-29T03:13:02;95316.03;;;3.01;100.00
11329;BME280;5719;42.714;23.732;2022-12-29T03:15:54;95326.22;;;3.02;100.00
11329;BME280;5719;42.714;23.732;2022-12-29T03:18:40;95316.78;;;3.04;100.00
11329;BME280;5719;42.714;23.732;2022-12-29T03:21:15;95310.94;;;3.01;100.00
11329;BME280;5719;42.714;23.732;2022-12-29T03:23:44;95316.81;;;3.03;99.97
11329;BME280;5719;42.714;23.732;2022-12-29T03:26:16;95319.31;;;3.06;100.00
11329;BME280;5719;42.714;23.732;2022-12-29T03:28:47;95317.53;;;3.08;99.48
11329;BME280;5719;42.714;23.732;2022-12-29T03:31:17;95315.94;;;3.04;100.00
11329;BME280;5719;42.714;23.732;2022-12-29T03:33:47;95319.34;;;3.04;99.96
11329;BME280;5719;42.714;23.732;2022-12-29T03:36:20;95318.50;;;3.04;99.05
11329;BME280;5719;42.714;23.732;2022-12-29T03:38:53;95316.59;;;3.10;99.37
11329;BME280;5719;42.714;23.732;2022-12-29T03:41:24;95320.13;;;3.06;98.46
11329;BME280;5719;42.714;23.732;2022-12-29T03:43:52;95321.06;;;3.04;98.51
11329;BME280;5719;42.714;23.732;2022-12-29T03:46:19;95317.72;;;3.02;97.96
11329;BME280;5719;42.714;23.732;2022-12-29T03:48:47;95323.88;;;2.94;98.08
11329;BME280;5719;42.714;23.732;2022-12-29T03:51:14;95313.16;;;2.83;99.51
11329;BME280;5719;42.714;23.732;2022-12-29T03:53:41;95314.34;;;2.70;100.00
11329;BME280;5719;42.714;23.732;2022-12-29T03:56:07;95317.75;;;2.71;100.00
11329;BME280;5719;42.714;23.732;2022-12-29T03:58:34;95320.31;;;2.71;100.00
11329;BME280;5719;42.714;23.732;2022-12-29T04:01:01;95303.47;;;2.65;100.00
11329;BME280;5719;42.714;23.732;2022-12-29T04:03:28;95309.22;;;2.72;100.00
11329;BME280;5719;42.714;23.732;2022-12-29T04:05:56;95300.09;;;2.63;100.00
11329;BME280;5719;42.714;23.732;2022-12-29T04:08:23;95305.16;;;2.34;100.00
11329;BME280;5719;42.714;23.732;2022-12-29T04:10:50;95302.63;;;2.34;100.00
11329;BME280;5719;42.714;23.732;2022-12-29T04:13:17;95293.53;;;2.24;100.00
11329;BME280;5719;42.714;23.732;2022-12-29T04:15:44;95296.75;;;2.00;100.00
11329;BME280;5719;42.714;23.732;2022-12-29T04:18:12;95303.06;;;1.85;100.00
11329;BME280;5719;42.714;23.732;2022-12-29T04:20:39;95310.28;;;2.02;100.00
11329;BME280;5719;42.714;23.732;2022-12-29T04:23:24;95308.97;;;2.19;100.00
11329;BME280;5719;42.714;23.732;2022-12-29T04:25:51;95306.19;;;2.28;100.00
11329;BME280;5719;42.714;23.732;2022-12-29T04:28:18;95308.47;;;2.37;100.00
11329;BME280;5719;42.714;23.732;2022-12-29T04:30:45;95311.75;;;2.42;100.00
11329;BME280;5719;42.714;23.732;2022-12-29T04:33:12;95319.28;;;2.47;100.00
11329;BME280;5719;42.714;23.732;2022-12-29T04:35:39;95317.50;;;2.49;100.00
11329;BME280;5719;42.714;23.732;2022-12-29T04:38:06;95315.78;;;2.51;100.00
11329;BME280;5719;42.714;23.732;2022-12-29T04:40:35;95322.53;;;2.52;99.78
11329;BME280;5719;42.714;23.732;2022-12-29T04:43:02;95322.53;;;2.52;99.38
11329;BME280;5719;42.714;23.732;2022-12-29T04:45:29;95330.94;;;2.56;98.34
11329;BME280;5719;42.714;23.732;2022-12-29T04:47:56;95326.72;;;2.55;98.58
11329;BME280;5719;42.714;23.732;2022-12-29T04:50:22;95322.50;;;2.54;97.52
11329;BME280;5719;42.714;23.732;2022-12-29T04:52:49;95320.13;;;2.47;98.22
11329;BME280;5719;42.714;23.732;2022-12-29T04:55:16;95331.22;;;2.45;98.13
11329;BME280;5719;42.714;23.732;2022-12-29T04:57:44;95332.13;;;2.44;99.50
11329;BME280;5719;42.714;23.732;2022-12-29T05:00:12;95335.56;;;2.43;99.06
11329;BME280;5719;42.714;23.732;2022-12-29T05:02:39;95332.19;;;2.41;98.90
11329;BME280;5719;42.714;23.732;2022-12-29T05:05:07;95335.56;;;2.41;98.50
11329;BME280;5719;42.714;23.732;2022-12-29T05:07:34;95336.41;;;2.42;97.94
11329;BME280;5719;42.714;23.732;2022-12-29T05:10:01;95344.94;;;2.41;98.56
11329;BME280;5719;42.714;23.732;2022-12-29T05:12:30;95345.03;;;2.38;98.50
11329;BME280;5719;42.714;23.732;2022-12-29T05:14:58;95342.66;;;2.32;96.96
11329;BME280;5719;42.714;23.732;2022-12-29T05:20:42;95356.44;;;2.25;97.13
11329;BME280;5719;42.714;23.732;2022-12-29T05:23:09;95346.31;;;2.22;96.73
11329;BME280;5719;42.714;23.732;2022-12-29T05:25:36;95353.97;;;2.22;97.16
11329;BME280;5719;42.714;23.732;2022-12-29T05:28:03;95359.97;;;2.19;96.25
11329;BME280;5719;42.714;23.732;2022-12-29T05:30:32;95362.66;;;2.15;95.72
11329;BME280;5719;42.714;23.732;2022-12-29T05:32:59;95349.19;;;2.10;95.93
11329;BME280;5719;42.714;23.732;2022-12-29T05:35:26;95351.81;;;2.07;96.24
11329;BME280;5719;42.714;23.732;2022-12-29T05:37:52;95338.38;;;2.00;95.77
11329;BME280;5719;42.714;23.732;2022-12-29T05:40:20;95340.97;;;1.98;94.94
11329;BME280;5719;42.714;23.732;2022-12-29T05:42:47;95351.31;;;1.92;94.85
11329;BME280;5719;42.714;23.732;2022-12-29T05:45:14;95348.03;;;1.87;94.81
11329;BME280;5719;42.714;23.732;2022-12-29T05:47:43;95349.84;;;1.82;95.75
11329;BME280;5719;42.714;23.732;2022-12-29T05:50:10;95342.84;;;1.57;98.62
11329;BME280;5719;42.714;23.732;2022-12-29T05:52:45;95354.03;;;1.49;99.58
11329;BME280;5719;42.714;23.732;2022-12-29T05:55:12;95357.31;;;1.56;98.85
11329;BME280;5719;42.714;23.732;2022-12-29T05:57:39;95358.00;;;1.61;98.55
11329;BME280;5719;42.714;23.732;2022-12-29T06:00:07;95360.47;;;1.66;98.97
11329;BME280;5719;42.714;23.732;2022-12-29T06:02:35;95354.44;;;1.68;98.34
11329;BME280;5719;42.714;23.732;2022-12-29T06:05:04;95356.91;;;1.71;99.49
11329;BME280;5719;42.714;23.732;2022-12-29T06:07:31;95359.41;;;1.74;99.32
11329;BME280;5719;42.714;23.732;2022-12-29T06:09:58;95357.63;;;1.78;99.68
11329;BME280;5719;42.714;23.732;2022-12-29T06:12:24;95360.03;;;1.82;100.00
11329;BME280;5719;42.714;23.732;2022-12-29T06:14:51;95354.19;;;1.79;100.00
11329;BME280;5719;42.714;23.732;2022-12-29T06:17:18;95351.38;;;1.56;100.00
11329;BME280;5719;42.714;23.732;2022-12-29T06:19:45;95348.31;;;1.40;100.00
11329;BME280;5719;42.714;23.732;2022-12-29T06:22:15;95350.88;;;1.40;100.00
11329;BME280;5719;42.714;23.732;2022-12-29T06:24:42;95355.47;;;1.61;100.00
11329;BME280;5719;42.714;23.732;2022-12-29T06:27:09;95358.72;;;2.03;100.00
11329;BME280;5719;42.714;23.732;2022-12-29T06:29:35;95366.28;;;2.38;100.00
11329;BME280;5719;42.714;23.732;2022-12-29T06:32:05;95360.50;;;2.64;100.00
11329;BME280;5719;42.714;23.732;2022-12-29T06:34:32;95358.00;;;2.92;100.00
11329;BME280;5719;42.714;23.732;2022-12-29T06:36:59;95361.56;;;3.16;100.00
11329;BME280;5719;42.714;23.732;2022-12-29T06:39:28;95362.41;;;3.44;100.00
11329;BME280;5719;42.714;23.732;2022-12-29T06:41:55;95366.69;;;3.71;100.00
11329;BME280;5719;42.714;23.732;2022-12-29T06:44:22;95364.34;;;3.91;100.00
11329;BME280;5719;42.714;23.732;2022-12-29T06:46:50;95368.38;;;4.25;98.46
11329;BME280;5719;42.714;23.732;2022-12-29T06:49:17;95360.53;;;4.54;96.50
11329;BME280;5719;42.714;23.732;2022-12-29T06:51:43;95364.25;;;4.93;94.28
11329;BME280;5719;42.714;23.732;2022-12-29T06:54:11;95363.03;;;5.27;92.71
11329;BME280;5719;42.714;23.732;2022-12-29T06:56:39;95361.91;;;5.56;89.45
11329;BME280;5719;42.714;23.732;2022-12-29T06:59:06;95366.09;;;5.80;87.31
11329;BME280;5719;42.714;23.732;2022-12-29T07:01:33;95363.75;;;5.97;85.49
11329;BME280;5719;42.714;23.732;2022-12-29T07:04:02;95369.59;;;6.21;84.34
11329;BME280;5719;42.714;23.732;2022-12-29T07:06:29;95373.59;;;6.68;82.10
11329;BME280;5719;42.714;23.732;2022-12-29T07:08:56;95371.13;;;7.06;79.39
11329;BME280;5719;42.714;23.732;2022-12-29T07:11:23;95364.59;;;7.36;78.43
11329;BME280;5719;42.714;23.732;2022-12-29T07:13:52;95379.47;;;7.67;77.10
11329;BME280;5719;42.714;23.732;2022-12-29T07:16:20;95373.66;;;7.99;77.71
11329;BME280;5719;42.714;23.732;2022-12-29T07:18:47;95365.91;;;8.35;74.16
11329;BME280;5719;42.714;23.732;2022-12-29T07:21:13;95364.88;;;8.73;73.12
11329;BME280;5719;42.714;23.732;2022-12-29T07:23:40;95364.94;;;9.05;71.33
11329;BME280;5719;42.714;23.732;2022-12-29T07:26:11;95366.91;;;8.84;68.26
11329;BME280;5719;42.714;23.732;2022-12-29T07:28:38;95363.81;;;9.26;67.64
11329;BME280;5719;42.714;23.732;2022-12-29T07:31:13;95368.88;;;9.60;66.66
11329;BME280;5719;42.714;23.732;2022-12-29T07:33:41;95382.38;;;9.97;64.25
11329;BME280;5719;42.714;23.732;2022-12-29T07:36:09;95375.31;;;10.16;63.29
11329;BME280;5719;42.714;23.732;2022-12-29T07:38:35;95370.63;;;10.52;62.40
11329;BME280;5719;42.714;23.732;2022-12-29T07:41:03;95380.66;;;10.87;61.21
11329;BME280;5719;42.714;23.732;2022-12-29T07:43:29;95378.50;;;11.23;60.40
11329;BME280;5719;42.714;23.732;2022-12-29T07:45:56;95379.03;;;11.56;59.24
11329;BME280;5719;42.714;23.732;2022-12-29T07:48:25;95375.94;;;11.92;58.27
11329;BME280;5719;42.714;23.732;2022-12-29T07:50:52;95370.38;;;12.25;57.25
11329;BME280;5719;42.714;23.732;2022-12-29T07:53:20;95371.94;;;12.54;56.53
11329;BME280;5719;42.714;23.732;2022-12-29T07:55:46;95372.31;;;12.88;55.32
11329;BME280;5719;42.714;23.732;2022-12-29T07:58:13;95374.66;;;13.17;54.79
11329;BME280;5719;42.714;23.732;2022-12-29T08:00:40;95370.78;;;13.48;53.06
11329;BME280;5719;42.714;23.732;2022-12-29T08:03:07;95378.34;;;13.77;53.16
11329;BME280;5719;42.714;23.732;2022-12-29T08:05:35;95363.97;;;14.07;52.45
11329;BME280;5719;42.714;23.732;2022-12-29T08:08:03;95370.94;;;14.43;50.68
11329;BME280;5719;42.714;23.732;2022-12-29T08:10:30;95369.31;;;14.77;50.21
11329;BME280;5719;42.714;23.732;2022-12-29T08:12:57;95368.56;;;15.10;48.99
11329;BME280;5719;42.714;23.732;2022-12-29T08:15:24;95358.66;;;15.37;49.81
11329;BME280;5719;42.714;23.732;2022-12-29T08:17:51;95370.59;;;15.29;48.45
11329;BME280;5719;42.714;23.732;2022-12-29T08:20:18;95371.25;;;15.65;47.98
11329;BME280;5719;42.714;23.732;2022-12-29T08:22:46;95369.06;;;15.93;47.71
11329;BME280;5719;42.714;23.732;2022-12-29T08:25:13;95369.81;;;15.95;47.13
11329;BME280;5719;42.714;23.732;2022-12-29T08:27:40;95366.22;;;15.96;46.80
11329;BME280;5719;42.714;23.732;2022-12-29T08:30:08;95362.88;;;16.16;46.35
11329;BME280;5719;42.714;23.732;2022-12-29T08:32:35;95370.69;;;16.27;45.77
11329;BME280;5719;42.714;23.732;2022-12-29T08:35:03;95364.38;;;16.30;45.71
11329;BME280;5719;42.714;23.732;2022-12-29T08:37:31;95370.03;;;16.46;45.29
11329;BME280;5719;42.714;23.732;2022-12-29T08:40:00;95370.13;;;16.55;45.13
11329;BME280;5719;42.714;23.732;2022-12-29T08:42:29;95373.91;;;16.51;45.38
11329;BME280;5719;42.714;23.732;2022-12-29T08:44:56;95370.97;;;16.56;44.85
11329;BME280;5719;42.714;23.732;2022-12-29T08:47:23;95365.34;;;16.72;45.01
11329;BME280;5719;42.714;23.732;2022-12-29T08:49:50;95366.38;;;17.22;43.83
11329;BME280;5719;42.714;23.732;2022-12-29T08:52:17;95362.41;;;17.27;43.33
11329;BME280;5719;42.714;23.732;2022-12-29T08:54:45;95362.97;;;17.51;42.66
11329;BME280;5719;42.714;23.732;2022-12-29T08:57:13;95355.69;;;17.85;41.96
11329;BME280;5719;42.714;23.732;2022-12-29T08:59:40;95359.22;;;18.14;41.51
11329;BME280;5719;42.714;23.732;2022-12-29T09:02:10;95360.22;;;18.33;40.83
11329;BME280;5719;42.714;23.732;2022-12-29T09:04:37;95359.56;;;18.50;40.63
11329;BME280;5719;42.714;23.732;2022-12-29T09:07:04;95356.81;;;18.51;40.76
11329;BME280;5719;42.714;23.732;2022-12-29T09:09:31;95338.63;;;18.50;40.71
11329;BME280;5719;42.714;23.732;2022-12-29T09:11:57;95336.28;;;18.66;40.52
11329;BME280;5719;42.714;23.732;2022-12-29T09:14:26;95336.16;;;18.68;40.20
11329;BME280;5719;42.714;23.732;2022-12-29T09:16:53;95339.97;;;19.02;39.63
11329;BME280;5719;42.714;23.732;2022-12-29T09:19:37;95324.59;;;18.80;39.85
11329;BME280;5719;42.714;23.732;2022-12-29T09:22:04;95324.53;;;18.99;39.55
11329;BME280;5719;42.714;23.732;2022-12-29T09:24:31;95321.50;;;19.03;39.97
11329;BME280;5719;42.714;23.732;2022-12-29T09:26:58;95331.16;;;18.84;39.80
11329;BME280;5719;42.714;23.732;2022-12-29T09:29:26;95329.22;;;19.15;39.34
11329;BME280;5719;42.714;23.732;2022-12-29T09:31:54;95333.59;;;18.18;40.61
11329;BME280;5719;42.714;23.732;2022-12-29T09:34:21;95321.13;;;18.60;40.50
11329;BME280;5719;42.714;23.732;2022-12-29T09:36:48;95325.13;;;18.74;40.29
11329;BME280;5719;42.714;23.732;2022-12-29T09:39:14;95322.19;;;18.96;40.04
11329;BME280;5719;42.714;23.732;2022-12-29T09:41:47;95319.44;;;19.63;39.14
11329;BME280;5719;42.714;23.732;2022-12-29T09:44:22;95312.31;;;19.46;38.86
11329;BME280;5719;42.714;23.732;2022-12-29T09:46:54;95317.59;;;19.73;38.37
11329;BME280;5719;42.714;23.732;2022-12-29T09:49:28;95310.50;;;19.83;38.42
11329;BME280;5719;42.714;23.732;2022-12-29T09:52:04;95313.47;;;19.71;38.03
11329;BME280;5719;42.714;23.732;2022-12-29T09:54:40;95314.88;;;19.92;38.50
11329;BME280;5719;42.714;23.732;2022-12-29T09:57:20;95311.91;;;20.32;37.89
11329;BME280;5719;42.714;23.732;2022-12-29T09:59:50;95308.34;;;19.69;38.91
11329;BME280;5719;42.714;23.732;2022-12-29T10:02:37;95310.63;;;20.54;37.32
11329;BME280;5719;42.714;23.732;2022-12-29T10:05:24;95302.66;;;20.64;37.55
11329;BME280;5719;42.714;23.732;2022-12-29T10:08:03;95311.47;;;20.54;37.39
11329;BME280;5719;42.714;23.732;2022-12-29T10:10:38;95309.63;;;19.65;39.08
11329;BME280;5719;42.714;23.732;2022-12-29T10:13:19;95304.63;;;19.25;39.60
11329;BME280;5719;42.714;23.732;2022-12-29T10:15:56;95296.78;;;19.89;39.43
11329;BME280;5719;42.714;23.732;2022-12-29T10:18:42;95292.06;;;20.55;38.36
11329;BME280;5719;42.714;23.732;2022-12-29T10:21:20;95296.66;;;19.91;39.62
11329;BME280;5719;42.714;23.732;2022-12-29T10:23:51;95284.88;;;19.68;39.46
11329;BME280;5719;42.714;23.732;2022-12-29T10:26:20;95275.78;;;20.34;38.77
11329;BME280;5719;42.714;23.732;2022-12-29T10:28:51;95277.97;;;20.57;38.69
11329;BME280;5719;42.714;23.732;2022-12-29T10:31:22;95274.63;;;20.19;38.49
11329;BME280;5719;42.714;23.732;2022-12-29T10:33:55;95272.34;;;19.62;39.95
11329;BME280;5719;42.714;23.732;2022-12-29T10:36:33;95273.25;;;20.42;39.77
11329;BME280;5719;42.714;23.732;2022-12-29T10:39:06;95263.38;;;20.80;38.77
11329;BME280;5719;42.714;23.732;2022-12-29T10:41:43;95266.88;;;19.08;40.00
11329;BME280;5719;42.714;23.732;2022-12-29T10:44:14;95258.25;;;18.31;42.42
11329;BME280;5719;42.714;23.732;2022-12-29T10:46:43;95261.50;;;17.76;44.41
11329;BME280;5719;42.714;23.732;2022-12-29T10:49:16;95256.97;;;18.93;41.34
11329;BME280;5719;42.714;23.732;2022-12-29T10:51:46;95255.91;;;18.47;42.45
11329;BME280;5719;42.714;23.732;2022-12-29T10:54:16;95256.09;;;17.28;44.64
11329;BME280;5719;42.714;23.732;2022-12-29T10:56:49;95260.94;;;17.82;44.02
11329;BME280;5719;42.714;23.732;2022-12-29T10:59:20;95254.69;;;18.13;43.37
11329;BME280;5719;42.714;23.732;2022-12-29T11:01:58;95256.59;;;17.92;45.37
11329;BME280;5719;42.714;23.732;2022-12-29T11:04:38;95247.47;;;19.66;41.83
11329;BME280;5719;42.714;23.732;2022-12-29T11:07:08;95236.84;;;20.47;39.19
11329;BME280;5719;42.714;23.732;2022-12-29T11:09:36;95229.75;;;20.66;38.71
11329;BME280;5719;42.714;23.732;2022-12-29T11:12:22;95232.09;;;20.51;38.40
11329;BME280;5719;42.714;23.732;2022-12-29T11:15:02;95234.09;;;21.52;36.80
11329;BME280;5719;42.714;23.732;2022-12-29T11:17:29;95233.63;;;20.36;38.42
11329;BME280;5719;42.714;23.732;2022-12-29T11:19:57;95236.25;;;20.53;38.66
11329;BME280;5719;42.714;23.732;2022-12-29T11:22:27;95227.09;;;20.58;38.99
11329;BME280;5719;42.714;23.732;2022-12-29T11:24:55;95237.41;;;19.61;39.99
11329;BME280;5719;42.714;23.732;2022-12-29T11:27:31;95219.56;;;20.88;38.12
11329;BME280;5719;42.714;23.732;2022-12-29T11:29:58;95222.66;;;21.77;36.94
11329;BME280;5719;42.714;23.732;2022-12-29T11:32:26;95213.34;;;21.91;36.37
11329;BME280;5719;42.714;23.732;2022-12-29T11:34:58;95209.25;;;22.05;35.90
11329;BME280;5719;42.714;23.732;2022-12-29T11:37:28;95225.66;;;20.89;37.93
11329;BME280;5719;42.714;23.732;2022-12-29T11:39:57;95212.13;;;18.96;41.36
11329;BME280;5719;42.714;23.732;2022-12-29T11:42:34;95207.50;;;19.99;40.08
11329;BME280;5719;42.714;23.732;2022-12-29T11:45:06;95204.19;;;20.50;39.18
11329;BME280;5719;42.714;23.732;2022-12-29T11:47:33;95204.06;;;20.34;39.62
11329;BME280;5719;42.714;23.732;2022-12-29T11:50:06;95201.97;;;19.75;40.48
11329;BME280;5719;42.714;23.732;2022-12-29T11:52:35;95198.88;;;20.24;39.89
11329;BME280;5719;42.714;23.732;2022-12-29T11:55:16;95202.06;;;19.01;40.71
11329;BME280;5719;42.714;23.732;2022-12-29T11:57:44;95198.41;;;20.11;40.00
11329;BME280;5719;42.714;23.732;2022-12-29T12:00:16;95200.31;;;20.62;39.18
11329;BME280;5719;42.714;23.732;2022-12-29T12:02:50;95193.16;;;20.11;39.73
11329;BME280;5719;42.714;23.732;2022-12-29T12:05:28;95195.28;;;18.04;43.04
11329;BME280;5719;42.714;23.732;2022-12-29T12:08:03;95192.28;;;17.99;44.28
11329;BME280;5719;42.714;23.732;2022-12-29T12:10:36;95191.28;;;18.00;44.95
11329;BME280;5719;42.714;23.732;2022-12-29T12:13:17;95186.16;;;18.66;43.19
11329;BME280;5719;42.714;23.732;2022-12-29T12:15:49;95185.09;;;18.39;43.54
11329;BME280;5719;42.714;23.732;2022-12-29T12:18:24;95186.78;;;18.21;43.75
11329;BME280;5719;42.714;23.732;2022-12-29T12:20:57;95188.00;;;17.29;46.24
11329;BME280;5719;42.714;23.732;2022-12-29T12:23:32;95178.50;;;18.35;44.34
11329;BME280;5719;42.714;23.732;2022-12-29T12:26:08;95182.09;;;17.77;45.42
11329;BME280;5719;42.714;23.732;2022-12-29T12:28:42;95173.88;;;18.76;44.53
11329;BME280;5719;42.714;23.732;2022-12-29T12:31:18;95166.91;;;20.11;40.52
11329;BME280;5719;42.714;23.732;2022-12-29T12:33:53;95167.97;;;18.54;44.03
11329;BME280;5719;42.714;23.732;2022-12-29T12:36:27;95171.28;;;19.85;41.44
11329;BME280;5719;42.714;23.732;2022-12-29T12:39:02;95171.03;;;19.24;42.41
11329;BME280;5719;42.714;23.732;2022-12-29T12:41:43;95168.53;;;18.68;43.76
11329;BME280;5719;42.714;23.732;2022-12-29T12:44:17;95171.00;;;17.54;45.45
11329;BME280;5719;42.714;23.732;2022-12-29T12:47:09;95171.78;;;16.95;46.55
11329;BME280;5719;42.714;23.732;2022-12-29T12:52:46;95172.88;;;15.68;50.87
11329;BME280;5719;42.714;23.732;2022-12-29T12:55:28;95164.97;;;16.53;48.44
11329;BME280;5719;42.714;23.732;2022-12-29T12:58:07;95174.56;;;15.90;49.53
11329;BME280;5719;42.714;23.732;2022-12-29T13:00:57;95174.53;;;14.49;54.89
11329;BME280;5719;42.714;23.732;2022-12-29T13:03:38;95189.81;;;14.53;54.45
11329;BME280;5719;42.714;23.732;2022-12-29T13:06:18;95185.09;;;14.92;54.27
11329;BME280;5719;42.714;23.732;2022-12-29T13:09:03;95178.41;;;14.43;55.38
11329;BME280;5719;42.714;23.732;2022-12-29T13:11:44;95173.53;;;13.93;57.37
11329;BME280;5719;42.714;23.732;2022-12-29T13:14:24;95181.03;;;14.43;56.42
11329;BME280;5719;42.714;23.732;2022-12-29T13:17:01;95173.59;;;15.05;53.93
11329;BME280;5719;42.714;23.732;2022-12-29T13:19:33;95169.09;;;16.55;49.54
11329;BME280;5719;42.714;23.732;2022-12-29T13:22:08;95180.16;;;15.86;50.65
11329;BME280;5719;42.714;23.732;2022-12-29T13:24:44;95182.44;;;15.36;52.08
11329;BME280;5719;42.714;23.732;2022-12-29T13:27:17;95179.53;;;15.93;51.11
11329;BME280;5719;42.714;23.732;2022-12-29T13:29:52;95171.84;;;16.75;49.08
11329;BME280;5719;42.714;23.732;2022-12-29T13:32:33;95177.84;;;17.45;48.12
11329;BME280;5719;42.714;23.732;2022-12-29T13:35:12;95187.44;;;18.52;45.14